createdAt,value
2023-04-15T00:03:14.704Z,5.05
2023-04-15T00:08:22.681Z,7.10
2023-04-15T00:13:27.892Z,7.68
2023-04-15T00:18:33.006Z,8.85
2023-04-15T00:23:40.959Z,9.45
2023-04-15T00:28:46.098Z,5.72
2023-04-15T00:33:51.912Z,5.90
2023-04-15T00:38:59.827Z,5.30
2023-04-15T00:44:05.417Z,4.35
2023-04-15T00:49:10.757Z,5.32
2023-04-15T00:54:18.569Z,5.43
2023-04-15T00:59:23.689Z,6.43
2023-04-15T01:04:29.210Z,4.78
2023-04-15T01:09:36.965Z,11.15
2023-04-15T01:14:42.170Z,4.95
2023-04-15T01:19:47.496Z,7.40
2023-04-15T01:24:59.553Z,9.75
2023-04-15T01:30:08.275Z,19.70
2023-04-15T01:35:13.598Z,15.80
2023-04-15T01:40:18.808Z,18.95
2023-04-15T01:45:26.847Z,19.48
2023-04-15T01:50:31.913Z,22.20
2023-04-15T01:55:37.403Z,25.38
2023-04-15T02:00:45.705Z,25.08
2023-04-15T02:05:51.338Z,11.85
2023-04-15T02:10:56.403Z,9.13
2023-04-15T02:16:04.320Z,10.45
2023-04-15T02:21:09.549Z,16.27
2023-04-15T02:26:14.644Z,18.08
2023-04-15T02:31:22.520Z,17.08
2023-04-15T02:36:27.960Z,15.93
2023-04-15T02:41:33.239Z,22.20
2023-04-15T02:46:41.551Z,21.67
2023-04-15T02:51:48.996Z,15.32
2023-04-15T02:56:55.639Z,11.05
2023-04-15T03:02:03.361Z,10.23
2023-04-15T03:07:08.668Z,8.90
2023-04-15T03:12:13.739Z,6.78
2023-04-15T03:17:21.468Z,7.10
2023-04-15T03:22:26.898Z,7.00
2023-04-15T03:27:32.336Z,9.25
2023-04-15T03:32:40.077Z,15.52
2023-04-15T03:37:45.193Z,16.02
2023-04-15T03:42:50.226Z,10.50
2023-04-15T03:48:07.293Z,10.70
2023-04-15T03:53:21.719Z,10.35
2023-04-15T03:58:26.904Z,12.27
2023-04-15T04:03:34.877Z,14.95
2023-04-15T04:08:40.028Z,18.08
2023-04-15T04:13:45.193Z,15.35
2023-04-15T04:18:52.894Z,21.13
2023-04-15T04:23:59.274Z,22.50
2023-04-15T04:29:04.341Z,31.95
2023-04-15T04:34:12.026Z,21.38
2023-04-15T04:39:17.078Z,18.90
2023-04-15T04:44:22.508Z,20.45
2023-04-15T04:49:30.219Z,24.63
2023-04-15T04:54:36.573Z,18.17
2023-04-15T04:59:41.605Z,18.35
2023-04-15T05:04:50.410Z,21.75
2023-04-15T05:09:55.529Z,19.05
2023-04-15T05:15:00.654Z,16.23
2023-04-15T05:20:09.961Z,13.13
2023-04-15T05:25:15.075Z,9.10
2023-04-15T05:30:20.468Z,11.20
2023-04-15T05:35:28.197Z,15.07
2023-04-15T05:40:33.748Z,11.20
2023-04-15T05:45:38.833Z,7.82
2023-04-15T05:50:46.958Z,7.15
2023-04-15T05:55:52.025Z,6.25
2023-04-15T06:00:57.134Z,6.60
2023-04-15T06:06:04.917Z,6.40
2023-04-15T06:11:10.126Z,5.53
2023-04-15T06:16:15.185Z,6.45
2023-04-15T06:21:22.858Z,5.85
2023-04-15T06:26:28.476Z,5.90
2023-04-15T06:31:33.677Z,7.22
2023-04-15T06:36:41.487Z,6.65
2023-04-15T06:41:47.046Z,5.15
2023-04-15T06:46:52.177Z,5.68
2023-04-15T06:52:03.351Z,4.78
2023-04-15T06:57:11.184Z,3.38
2023-04-15T07:02:17.475Z,8.07
2023-04-15T07:07:25.916Z,3.88
2023-04-15T07:12:31.346Z,3.25
2023-04-15T07:17:36.667Z,7.00
2023-04-15T07:22:44.483Z,4.65
2023-04-15T07:27:49.538Z,5.15
2023-04-15T07:32:54.767Z,4.05
2023-04-15T07:38:03.081Z,2.38
2023-04-15T07:43:09.115Z,2.43
2023-04-15T07:48:14.245Z,5.03
2023-04-15T07:53:21.833Z,3.75
2023-04-15T07:58:26.944Z,4.05
2023-04-15T08:03:32.282Z,3.88
2023-04-15T08:08:40.224Z,6.07
2023-04-15T08:13:45.322Z,3.00
2023-04-15T08:18:54.240Z,3.20
2023-04-15T08:24:02.017Z,3.08
2023-04-15T08:29:07.229Z,3.13
2023-04-15T08:34:12.653Z,5.38
2023-04-15T08:39:20.842Z,11.73
2023-04-15T08:44:27.610Z,1.23
2023-04-15T08:49:33.171Z,1.75
2023-04-15T08:54:41.150Z,6.25
2023-04-15T08:59:46.849Z,2.97
2023-04-15T09:04:52.108Z,4.47
2023-04-15T09:09:59.848Z,4.13
2023-04-15T09:15:05.240Z,0.98
2023-04-15T09:20:14.668Z,6.00
2023-04-15T09:25:34.957Z,1.27
2023-04-15T09:30:40.695Z,1.63
2023-04-15T09:35:46.373Z,1.90
2023-04-15T09:40:54.088Z,1.70
2023-04-15T09:45:59.300Z,1.75
2023-04-15T09:51:04.919Z,1.48
2023-04-15T09:56:13.206Z,1.60
2023-04-15T10:01:18.519Z,1.30
2023-04-15T10:06:23.664Z,1.80
2023-04-15T10:11:33.229Z,1.20
2023-04-15T10:16:40.228Z,1.20
2023-04-15T10:21:45.454Z,1.58
2023-04-15T10:26:53.880Z,1.15
2023-04-15T10:32:02.142Z,2.40
2023-04-15T10:37:07.515Z,1.77
2023-04-15T10:42:19.571Z,3.75
2023-04-15T10:47:25.789Z,1.98
2023-04-15T10:52:31.966Z,2.50
2023-04-15T10:57:44.706Z,11.77
2023-04-15T11:02:56.208Z,1.60
2023-04-15T11:08:04.992Z,7.57
2023-04-15T11:13:22.108Z,1.77
2023-04-15T11:18:30.336Z,1.40
2023-04-15T11:23:37.855Z,1.20
2023-04-15T11:28:48.036Z,2.30
2023-04-15T11:33:58.466Z,0.80
2023-04-15T11:39:04.484Z,0.70
2023-04-15T11:44:19.936Z,1.00
2023-04-15T11:49:34.230Z,1.20
2023-04-15T11:54:39.459Z,1.10
2023-04-15T11:59:50.449Z,1.40
2023-04-15T12:05:06.962Z,2.83
2023-04-15T12:10:12.132Z,1.52
2023-04-15T12:15:20.788Z,1.00
2023-04-15T12:20:29.264Z,0.70
2023-04-15T12:25:38.471Z,0.73
2023-04-15T12:30:57.291Z,0.40
2023-04-15T12:36:02.443Z,0.50
2023-04-15T12:41:07.684Z,0.80
2023-04-15T12:46:15.893Z,0.43
2023-04-15T12:51:21.737Z,0.50
2023-04-15T12:56:27.267Z,0.75
2023-04-15T13:01:34.976Z,0.32
2023-04-15T13:06:40.420Z,0.65
2023-04-15T13:11:45.533Z,0.60
2023-04-15T13:16:54.149Z,0.80
2023-04-15T13:21:59.257Z,0.77
2023-04-15T13:27:04.718Z,1.08
2023-04-15T13:32:12.577Z,1.00
2023-04-15T13:37:17.599Z,0.60
2023-04-15T13:42:22.926Z,0.60
2023-04-15T13:47:30.946Z,0.80
2023-04-15T13:52:36.214Z,0.65
2023-04-15T13:57:41.354Z,0.98
2023-04-15T14:02:49.249Z,0.73
2023-04-15T14:07:54.358Z,0.80
2023-04-15T14:12:59.614Z,0.40
2023-04-15T14:18:07.453Z,0.82
2023-04-15T14:23:12.662Z,1.15
2023-04-15T14:28:17.991Z,0.73
2023-04-15T14:33:25.773Z,0.75
2023-04-15T14:38:30.907Z,0.60
2023-04-15T14:43:36.222Z,0.70
2023-04-15T14:48:43.973Z,0.68
2023-04-15T14:53:49.255Z,0.60
2023-04-15T14:58:54.646Z,0.82
2023-04-15T15:04:02.376Z,1.10
2023-04-15T15:09:07.957Z,0.52
2023-04-15T15:14:13.157Z,2.08
2023-04-15T15:19:20.988Z,1.38
2023-04-15T15:24:26.141Z,0.80
2023-04-15T15:29:45.060Z,1.50
2023-04-15T15:34:49.754Z,1.92
2023-04-15T15:39:55.443Z,1.35
2023-04-15T15:45:03.292Z,6.60
2023-04-15T15:50:08.767Z,6.93
2023-04-15T15:55:13.530Z,1.98
2023-04-15T16:00:21.687Z,3.10
2023-04-15T16:05:26.464Z,2.80
2023-04-15T16:10:31.229Z,10.23
2023-04-15T16:15:38.554Z,2.63
2023-04-15T16:20:43.321Z,2.05
2023-04-15T16:25:48.474Z,1.77
2023-04-15T16:30:56.301Z,2.33
2023-04-15T16:36:01.356Z,2.47
2023-04-15T16:41:06.161Z,2.70
2023-04-15T16:46:13.608Z,6.57
2023-04-15T16:51:18.418Z,5.53
2023-04-15T16:56:23.886Z,6.25
2023-04-15T17:01:31.599Z,2.05
2023-04-15T17:06:36.601Z,1.75
2023-04-15T17:11:41.436Z,1.73
2023-04-15T17:16:48.853Z,1.85
2023-04-15T17:21:55.105Z,1.20
2023-04-15T17:27:00.659Z,2.00
2023-04-15T17:32:10.536Z,1.33
2023-04-15T17:37:15.346Z,0.80
2023-04-15T17:42:20.026Z,2.03
2023-04-15T17:47:27.719Z,2.40
2023-04-15T17:52:33.020Z,1.17
2023-04-15T17:57:37.969Z,0.90
2023-04-15T18:02:45.610Z,1.23
2023-04-15T18:07:50.796Z,1.88
2023-04-15T18:12:57.606Z,0.90
2023-04-15T18:18:07.260Z,1.30
2023-04-15T18:23:14.728Z,10.48
2023-04-15T18:28:19.469Z,0.90
2023-04-15T18:33:26.909Z,1.40
2023-04-15T18:38:32.065Z,0.95
2023-04-15T18:43:36.815Z,2.42
2023-04-15T18:48:44.154Z,1.35
2023-04-15T18:53:48.834Z,1.45
2023-04-15T18:59:23.090Z,1.05
2023-04-15T19:04:20.917Z,1.38
2023-04-15T19:09:26.297Z,1.52
2023-04-15T19:14:31.094Z,0.82
2023-04-15T19:19:38.882Z,1.25
2023-04-15T19:24:43.774Z,1.30
2023-04-15T19:29:48.545Z,1.25
2023-04-15T19:34:56.024Z,2.90
2023-04-15T19:40:00.733Z,2.35
2023-04-15T19:45:05.510Z,1.40
2023-04-15T19:50:13.446Z,1.58
2023-04-15T19:55:18.314Z,1.90
2023-04-15T20:00:23.251Z,1.30
2023-04-15T20:05:30.725Z,1.60
2023-04-15T20:10:36.024Z,14.07
2023-04-15T20:15:40.883Z,5.13
2023-04-15T20:20:48.257Z,3.92
2023-04-15T20:25:52.965Z,2.78
2023-04-15T20:30:57.812Z,3.10
2023-04-15T20:36:05.196Z,3.33
2023-04-15T20:41:09.980Z,4.60
2023-04-15T20:46:21.196Z,4.32
2023-04-15T20:51:31.674Z,5.00
2023-04-15T20:56:36.647Z,4.28
2023-04-15T21:01:41.596Z,3.92
2023-04-15T21:06:49.088Z,4.13
2023-04-15T21:12:01.016Z,3.53
2023-04-15T21:17:09.360Z,3.70
2023-04-15T21:22:18.246Z,3.57
2023-04-15T21:27:23.029Z,3.83
2023-04-15T21:32:27.843Z,3.30
2023-04-15T21:37:36.745Z,3.45
2023-04-15T21:42:42.026Z,4.32
2023-04-15T21:48:04.476Z,4.03
2023-04-15T21:53:14.305Z,4.18
2023-04-15T21:58:19.123Z,4.20
2023-04-15T22:03:24.078Z,4.70
2023-04-15T22:08:36.115Z,5.18
2023-04-15T22:13:47.002Z,5.97
2023-04-15T22:18:51.940Z,5.03
2023-04-15T22:24:34.373Z,5.85
2023-04-15T22:29:24.789Z,6.47
2023-04-15T22:34:29.655Z,5.80
2023-04-15T22:39:37.114Z,6.63
2023-04-15T22:44:41.906Z,6.68
2023-04-15T22:49:46.989Z,6.55
2023-04-15T22:54:54.513Z,7.30
2023-04-15T22:59:59.346Z,6.93
2023-04-15T23:05:13.056Z,6.35
2023-04-15T23:10:20.947Z,6.10
2023-04-15T23:15:25.835Z,6.30
2023-04-15T23:20:30.648Z,7.30
2023-04-15T23:25:38.035Z,7.22
2023-04-15T23:30:42.953Z,7.30
2023-04-15T23:35:47.808Z,7.57
2023-04-15T23:40:56.285Z,7.07
2023-04-15T23:46:01.132Z,8.95
2023-04-15T23:51:06.426Z,8.25
2023-04-15T23:56:13.919Z,9.30
